createdAt,value
2023-03-06T05:39:00.899Z,99304.22
2023-03-06T05:41:27.783Z,99309.50
2023-03-06T05:44:00.001Z,99298.95
2023-03-06T05:46:27.151Z,99302.73
2023-03-06T05:48:54.703Z,99300.04
2023-03-06T05:51:21.414Z,99298.38
2023-03-06T05:53:48.080Z,99300.14
2023-03-06T05:56:21.172Z,99304.48
2023-03-06T05:58:48.049Z,99297.36
2023-03-06T06:01:17.030Z,99305.32
2023-03-06T06:03:45.184Z,99304.77
2023-03-06T06:06:13.037Z,99301.11
2023-03-06T06:08:43.498Z,99303.98
2023-03-06T06:11:11.805Z,99302.94
2023-03-06T06:13:38.812Z,99305.34
2023-03-06T06:16:10.964Z,99304.52
2023-03-06T06:18:41.041Z,99304.73
2023-03-06T06:21:12.490Z,99308.86
2023-03-06T06:23:41.366Z,99309.36
2023-03-06T06:26:09.063Z,99312.29
2023-03-06T06:28:41.472Z,99316.70
2023-03-06T06:31:17.315Z,99321.30
2023-03-06T06:34:05.556Z,99322.92
2023-03-06T06:44:17.378Z,99322.30
2023-03-06T06:47:22.237Z,99321.90
2023-03-06T06:50:18.567Z,99324.55
2023-03-06T06:52:46.368Z,99328.02
2023-03-06T06:55:22.754Z,99330.54
2023-03-06T06:57:55.552Z,99329.84
2023-03-06T07:00:24.012Z,99334.33
2023-03-06T07:02:52.100Z,99341.34
2023-03-06T07:05:20.861Z,99342.82
2023-03-06T07:07:51.105Z,99347.20
2023-03-06T07:10:19.990Z,99352.46
2023-03-06T07:12:48.765Z,99354.36
2023-03-06T07:15:16.853Z,99357.59
2023-03-06T07:17:43.734Z,99356.89
2023-03-06T07:20:13.408Z,99357.91
2023-03-06T07:22:50.865Z,99357.54
2023-03-06T07:25:18.743Z,99361.59
2023-03-06T07:27:53.432Z,99361.88
2023-03-06T07:30:22.088Z,99359.88
2023-03-06T07:32:52.114Z,99361.79
2023-03-06T07:35:20.662Z,99362.23
2023-03-06T07:37:47.872Z,99361.36
2023-03-06T07:40:14.883Z,99360.88
2023-03-06T07:42:42.274Z,99366.52
2023-03-06T07:45:12.106Z,99370.42
2023-03-06T07:47:39.274Z,99362.00
2023-03-06T07:50:08.535Z,99364.91
2023-03-06T07:52:35.278Z,99365.27
2023-03-06T07:55:02.048Z,99366.59
2023-03-06T07:57:29.089Z,99364.79
2023-03-06T07:59:55.793Z,99367.10
2023-03-06T08:02:23.181Z,99365.83
2023-03-06T08:04:53.717Z,99368.84
2023-03-06T08:07:20.699Z,99377.86
2023-03-06T08:09:47.665Z,99378.45
2023-03-06T08:12:16.628Z,99370.24
2023-03-06T08:14:43.426Z,99370.65
2023-03-06T08:17:15.043Z,99367.64
2023-03-06T08:19:42.903Z,99372.44
2023-03-06T08:22:10.631Z,99377.79
2023-03-06T08:24:37.837Z,99376.17
2023-03-06T08:27:04.501Z,99379.74
2023-03-06T08:29:36.864Z,99376.59
2023-03-06T08:32:03.732Z,99384.66
2023-03-06T08:34:31.218Z,99384.64
2023-03-06T08:37:02.797Z,99387.36
2023-03-06T08:39:29.686Z,99386.80
2023-03-06T08:41:56.720Z,99392.80
2023-03-06T08:44:23.489Z,99396.25
2023-03-06T08:46:50.294Z,99401.36
2023-03-06T08:49:16.925Z,99399.40
2023-03-06T08:51:43.651Z,99400.35
2023-03-06T08:54:16.864Z,99404.43
2023-03-06T08:56:45.938Z,99400.84
2023-03-06T08:59:13.711Z,99404.08
2023-03-06T09:01:41.325Z,99400.98
2023-03-06T09:04:32.729Z,99399.23
2023-03-06T09:06:59.725Z,99401.70
2023-03-06T09:09:26.732Z,99406.33
2023-03-06T09:11:54.328Z,99400.95
2023-03-06T09:14:40.298Z,99400.05
2023-03-06T09:17:07.206Z,99401.78
2023-03-06T09:20:10.523Z,99396.04
2023-03-06T09:22:47.064Z,99394.39
2023-03-06T09:32:22.950Z,99391.10
2023-03-06T09:34:50.168Z,99396.67
2023-03-06T09:37:17.443Z,99401.46
2023-03-06T09:39:45.221Z,99414.71
2023-03-06T09:42:18.309Z,99407.40
2023-03-06T09:44:53.697Z,99413.31
2023-03-06T09:47:31.068Z,99415.56
2023-03-06T09:50:16.125Z,99412.71
2023-03-06T09:52:43.049Z,99422.11
2023-03-06T09:55:16.303Z,99420.25
2023-03-06T09:57:56.905Z,99409.06
2023-03-06T10:00:42.253Z,99408.52
2023-03-06T10:03:21.048Z,99412.27
2023-03-06T10:05:51.842Z,99414.23
2023-03-06T10:08:30.517Z,99411.14
2023-03-06T10:11:03.333Z,99415.13
2023-03-06T10:13:43.368Z,99413.09
2023-03-06T10:16:29.746Z,99424.92
2023-03-06T10:19:00.689Z,99423.48
2023-03-06T10:21:42.848Z,99422.16
2023-03-06T10:24:40.758Z,99422.84
2023-03-06T10:27:37.982Z,99415.84
2023-03-06T10:30:06.075Z,99410.05
2023-03-06T10:32:49.469Z,99410.52
2023-03-06T10:35:21.939Z,99411.95
2023-03-06T10:37:49.257Z,99412.67
2023-03-06T10:40:26.817Z,99403.41
2023-03-06T10:43:05.112Z,99408.52
2023-03-06T10:45:50.308Z,99413.15
2023-03-06T10:48:23.025Z,99416.19
2023-03-06T10:50:50.723Z,99411.13
2023-03-06T10:53:22.248Z,99415.91
2023-03-06T10:55:53.861Z,99415.55
2023-03-06T10:58:31.869Z,99412.95
2023-03-06T11:01:01.964Z,99412.39
2023-03-06T11:03:29.150Z,99410.57
2023-03-06T11:06:15.357Z,99407.68
2023-03-06T11:08:43.834Z,99413.02
2023-03-06T11:11:12.585Z,99412.76
2023-03-06T11:13:42.585Z,99398.64
2023-03-06T11:16:26.922Z,99406.21
2023-03-06T11:19:07.940Z,99391.71
2023-03-06T11:21:36.671Z,99394.48
2023-03-06T11:24:19.243Z,99394.69
2023-03-06T11:27:18.196Z,99392.80
2023-03-06T11:30:32.333Z,99388.95
2023-03-06T11:33:34.731Z,99396.55
2023-03-06T11:36:33.765Z,99397.60
2023-03-06T11:39:38.239Z,99393.52
2023-03-06T11:43:25.409Z,99394.36
2023-03-06T11:46:04.988Z,99395.23
2023-03-06T11:48:36.408Z,99401.95
2023-03-06T11:51:15.694Z,99402.56
2023-03-06T11:53:42.584Z,99398.67
2023-03-06T11:56:18.635Z,99400.81
2023-03-06T11:59:20.846Z,99398.80
2023-03-06T12:02:19.445Z,99401.80
2023-03-06T12:05:22.030Z,99405.63
2023-03-06T12:07:57.135Z,99406.14
2023-03-06T12:10:27.180Z,99413.41
2023-03-06T12:13:13.929Z,99405.96
2023-03-06T12:16:02.165Z,99405.61
2023-03-06T12:18:42.244Z,99407.02
2023-03-06T12:21:14.945Z,99409.98
2023-03-06T12:23:41.545Z,99408.58
2023-03-06T12:26:20.220Z,99415.48
2023-03-06T12:29:11.702Z,99416.69
2023-03-06T12:32:13.930Z,99418.80
2023-03-06T12:35:06.195Z,99418.30
2023-03-06T12:37:42.105Z,99418.11
2023-03-06T12:40:46.971Z,99421.40
2023-03-06T12:43:44.474Z,99419.45
2023-03-06T12:46:21.777Z,99419.39
2023-03-06T12:49:04.661Z,99412.92
2023-03-06T12:51:32.032Z,99414.50
2023-03-06T12:53:58.730Z,99418.55
2023-03-06T12:56:26.315Z,99412.67
2023-03-06T12:58:53.966Z,99420.63
2023-03-06T13:01:59.301Z,99414.56
2023-03-06T13:04:40.949Z,99417.11
2023-03-06T13:07:44.821Z,99416.70
2023-03-06T13:10:24.039Z,99413.52
2023-03-06T13:13:00.372Z,99419.89
2023-03-06T13:15:39.301Z,99416.61
2023-03-06T13:18:23.250Z,99417.13
2023-03-06T13:20:53.712Z,99417.45
2023-03-06T13:23:34.621Z,99418.63
2023-03-06T13:26:31.257Z,99412.55
2023-03-06T13:28:58.598Z,99411.34
2023-03-06T13:31:35.656Z,99414.15
2023-03-06T13:34:04.817Z,99417.11
2023-03-06T13:36:32.407Z,99418.81
2023-03-06T13:39:25.246Z,99412.88
2023-03-06T13:41:52.192Z,99412.85
2023-03-06T13:44:24.815Z,99408.85
2023-03-06T13:47:18.558Z,99407.98
2023-03-06T13:49:46.163Z,99405.74
2023-03-06T13:52:31.828Z,99401.55
2023-03-06T13:55:20.313Z,99406.20
2023-03-06T13:57:57.596Z,99409.28
2023-03-06T14:00:39.621Z,99404.77
2023-03-06T14:03:25.180Z,99402.33
2023-03-06T14:05:52.546Z,99404.05
2023-03-06T14:08:21.080Z,99407.48
2023-03-06T14:10:57.338Z,99411.58
2023-03-06T14:13:32.300Z,99408.95
2023-03-06T14:16:02.029Z,99417.94
2023-03-06T14:18:39.447Z,99420.51
2023-03-06T14:21:11.289Z,99426.15
2023-03-06T14:23:41.979Z,99421.94
